sensor_id;sensor_type;location;lat;lon;timestamp;temperature;humidity
16301;DHT22;8258;51.020;4.248;2023-02-01T00:00:00;6.20;99.90
16301;DHT22;8258;51.020;4.248;2023-02-01T00:02:27;6.20;99.90
16301;DHT22;8258;51.020;4.248;2023-02-01T00:04:54;6.30;99.90
16301;DHT22;8258;51.020;4.248;2023-02-01T00:07:21;6.30;99.90
16301;DHT22;8258;51.020;4.248;2023-02-01T00:09:48;6.30;99.90
16301;DHT22;8258;51.020;4.248;2023-02-01T00:12:16;6.30;99.90
16301;DHT22;8258;51.020;4.248;2023-02-01T00:14:43;6.30;99.90
16301;DHT22;8258;51.020;4.248;2023-02-01T00:17:10;6.40;99.90
16301;DHT22;8258;51.020;4.248;2023-02-01T00:19:37;6.40;99.90
16301;DHT22;8258;51.020;4.248;2023-02-01T00:22:04;6.40;99.90
16301;DHT22;8258;51.020;4.248;2023-02-01T00:24:31;6.40;99.90
16301;DHT22;8258;51.020;4.248;2023-02-01T00:26:58;6.50;99.90
16301;DHT22;8258;51.020;4.248;2023-02-01T00:29:26;6.50;99.90
16301;DHT22;8258;51.020;4.248;2023-02-01T00:31:53;6.50;99.90
16301;DHT22;8258;51.020;4.248;2023-02-01T00:34:20;6.50;99.90
16301;DHT22;8258;51.020;4.248;2023-02-01T00:36:53;6.40;99.90
16301;DHT22;8258;51.020;4.248;2023-02-01T00:39:20;6.30;99.90
16301;DHT22;8258;51.020;4.248;2023-02-01T00:41:47;6.30;99.90
16301;DHT22;8258;51.020;4.248;2023-02-01T00:44:14;6.30;99.90
16301;DHT22;8258;51.020;4.248;2023-02-01T00:46:42;6.30;99.90
16301;DHT22;8258;51.020;4.248;2023-02-01T00:49:15;6.30;99.90
16301;DHT22;8258;51.020;4.248;2023-02-01T00:51:42;6.30;99.90
16301;DHT22;8258;51.020;4.248;2023-02-01T00:54:09;6.20;99.90
16301;DHT22;8258;51.020;4.248;2023-02-01T00:56:36;6.10;99.90
16301;DHT22;8258;51.020;4.248;2023-02-01T00:59:03;6.10;99.90
16301;DHT22;8258;51.020;4.248;2023-02-01T01:01:30;6.20;99.90
16301;DHT22;8258;51.020;4.248;2023-02-01T01:03:59;6.20;99.90
16301;DHT22;8258;51.020;4.248;2023-02-01T01:06:29;6.20;99.90
16301;DHT22;8258;51.020;4.248;2023-02-01T01:08:57;6.20;99.90
16301;DHT22;8258;51.020;4.248;2023-02-01T01:11:26;6.20;99.90
16301;DHT22;8258;51.020;4.248;2023-02-01T01:13:55;6.20;99.90
16301;DHT22;8258;51.020;4.248;2023-02-01T01:16:24;6.20;99.90
16301;DHT22;8258;51.020;4.248;2023-02-01T01:18:52;6.20;99.90
16301;DHT22;8258;51.020;4.248;2023-02-01T01:21:21;6.10;99.90
16301;DHT22;8258;51.020;4.248;2023-02-01T01:23:48;6.10;99.90
16301;DHT22;8258;51.020;4.248;2023-02-01T01:26:17;6.10;99.90
16301;DHT22;8258;51.020;4.248;2023-02-01T01:28:45;6.10;99.90
16301;DHT22;8258;51.020;4.248;2023-02-01T01:31:13;6.00;99.90
16301;DHT22;8258;51.020;4.248;2023-02-01T01:33:57;6.00;99.90
16301;DHT22;8258;51.020;4.248;2023-02-01T01:36:32;5.90;99.90
16301;DHT22;8258;51.020;4.248;2023-02-01T01:38:59;5.80;99.90
16301;DHT22;8258;51.020;4.248;2023-02-01T01:41:29;5.70;99.90
16301;DHT22;8258;51.020;4.248;2023-02-01T01:43:58;5.50;99.90
16301;DHT22;8258;51.020;4.248;2023-02-01T01:46:27;5.50;99.90
16301;DHT22;8258;51.020;4.248;2023-02-01T01:49:03;5.40;99.90
16301;DHT22;8258;51.020;4.248;2023-02-01T01:51:35;5.30;99.90
16301;DHT22;8258;51.020;4.248;2023-02-01T01:54:07;5.30;99.90
16301;DHT22;8258;51.020;4.248;2023-02-01T01:56:35;5.20;99.90
16301;DHT22;8258;51.020;4.248;2023-02-01T01:59:04;5.20;99.90
16301;DHT22;8258;51.020;4.248;2023-02-01T02:01:31;5.10;99.90
16301;DHT22;8258;51.020;4.248;2023-02-01T02:03:59;5.20;99.90
16301;DHT22;8258;51.020;4.248;2023-02-01T02:06:34;5.20;99.90
16301;DHT22;8258;51.020;4.248;2023-02-01T02:09:03;5.20;99.90
16301;DHT22;8258;51.020;4.248;2023-02-01T02:11:30;5.10;99.90
16301;DHT22;8258;51.020;4.248;2023-02-01T02:13:58;5.00;99.90
16301;DHT22;8258;51.020;4.248;2023-02-01T02:16:50;5.00;99.90
16301;DHT22;8258;51.020;4.248;2023-02-01T02:19:39;5.00;99.90
16301;DHT22;8258;51.020;4.248;2023-02-01T02:22:40;4.90;99.90
16301;DHT22;8258;51.020;4.248;2023-02-01T02:25:33;5.00;99.90
16301;DHT22;8258;51.020;4.248;2023-02-01T02:28:13;5.10;99.90
16301;DHT22;8258;51.020;4.248;2023-02-01T02:31:01;5.10;99.90
16301;DHT22;8258;51.020;4.248;2023-02-01T02:33:50;5.00;99.90
16301;DHT22;8258;51.020;4.248;2023-02-01T02:36:27;5.00;99.90
16301;DHT22;8258;51.020;4.248;2023-02-01T02:39:03;5.00;99.90
16301;DHT22;8258;51.020;4.248;2023-02-01T02:41:34;5.00;99.90
16301;DHT22;8258;51.020;4.248;2023-02-01T02:44:24;4.90;99.90
16301;DHT22;8258;51.020;4.248;2023-02-01T02:47:23;4.90;99.90
16301;DHT22;8258;51.020;4.248;2023-02-01T02:49:56;4.90;99.90
16301;DHT22;8258;51.020;4.248;2023-02-01T02:52:46;4.90;99.90
16301;DHT22;8258;51.020;4.248;2023-02-01T02:55:33;4.90;99.90
16301;DHT22;8258;51.020;4.248;2023-02-01T02:58:03;4.90;99.90
16301;DHT22;8258;51.020;4.248;2023-02-01T03:00:48;5.00;99.90
16301;DHT22;8258;51.020;4.248;2023-02-01T03:03:36;5.00;99.90
16301;DHT22;8258;51.020;4.248;2023-02-01T03:06:23;5.10;99.90
16301;DHT22;8258;51.020;4.248;2023-02-01T03:08:51;5.10;99.90
16301;DHT22;8258;51.020;4.248;2023-02-01T03:11:20;5.10;99.90
16301;DHT22;8258;51.020;4.248;2023-02-01T03:13:50;5.10;99.90
16301;DHT22;8258;51.020;4.248;2023-02-01T03:16:20;5.10;99.90
16301;DHT22;8258;51.020;4.248;2023-02-01T03:18:55;5.00;99.90
16301;DHT22;8258;51.020;4.248;2023-02-01T03:21:27;5.00;99.90
16301;DHT22;8258;51.020;4.248;2023-02-01T03:23:58;5.00;99.90
16301;DHT22;8258;51.020;4.248;2023-02-01T03:26:29;5.10;99.90
16301;DHT22;8258;51.020;4.248;2023-02-01T03:29:02;5.10;99.90
16301;DHT22;8258;51.020;4.248;2023-02-01T03:31:32;5.10;99.90
16301;DHT22;8258;51.020;4.248;2023-02-01T03:34:00;5.20;99.90
16301;DHT22;8258;51.020;4.248;2023-02-01T03:36:33;5.20;99.90
16301;DHT22;8258;51.020;4.248;2023-02-01T03:39:05;5.20;99.90
16301;DHT22;8258;51.020;4.248;2023-02-01T03:41:37;5.20;99.90
16301;DHT22;8258;51.020;4.248;2023-02-01T03:44:12;5.20;99.90
16301;DHT22;8258;51.020;4.248;2023-02-01T03:46:44;5.20;99.90
16301;DHT22;8258;51.020;4.248;2023-02-01T03:49:20;5.10;99.90
16301;DHT22;8258;51.020;4.248;2023-02-01T03:51:51;5.10;99.90
16301;DHT22;8258;51.020;4.248;2023-02-01T03:54:19;5.10;99.90
16301;DHT22;8258;51.020;4.248;2023-02-01T03:56:48;5.10;99.90
16301;DHT22;8258;51.020;4.248;2023-02-01T03:59:15;5.00;99.90
16301;DHT22;8258;51.020;4.248;2023-02-01T04:01:42;5.00;99.90
16301;DHT22;8258;51.020;4.248;2023-02-01T04:04:09;5.00;99.90
16301;DHT22;8258;51.020;4.248;2023-02-01T04:06:36;5.10;99.90
16301;DHT22;8258;51.020;4.248;2023-02-01T04:09:04;5.00;99.90
16301;DHT22;8258;51.020;4.248;2023-02-01T04:11:31;5.00;99.90
16301;DHT22;8258;51.020;4.248;2023-02-01T04:13:58;5.00;99.90
16301;DHT22;8258;51.020;4.248;2023-02-01T04:16:29;4.90;99.90
16301;DHT22;8258;51.020;4.248;2023-02-01T04:18:56;4.90;99.90
16301;DHT22;8258;51.020;4.248;2023-02-01T04:21:24;4.80;99.90
16301;DHT22;8258;51.020;4.248;2023-02-01T04:23:51;4.80;99.90
16301;DHT22;8258;51.020;4.248;2023-02-01T04:26:20;4.80;99.90
16301;DHT22;8258;51.020;4.248;2023-02-01T04:28:47;4.80;99.90
16301;DHT22;8258;51.020;4.248;2023-02-01T04:31:14;4.80;99.90
16301;DHT22;8258;51.020;4.248;2023-02-01T04:33:41;4.80;99.90
16301;DHT22;8258;51.020;4.248;2023-02-01T04:36:09;4.80;99.90
16301;DHT22;8258;51.020;4.248;2023-02-01T04:38:36;4.70;99.90
16301;DHT22;8258;51.020;4.248;2023-02-01T04:41:03;4.80;99.90
16301;DHT22;8258;51.020;4.248;2023-02-01T04:43:31;4.80;99.90
16301;DHT22;8258;51.020;4.248;2023-02-01T04:45:58;4.70;99.90
16301;DHT22;8258;51.020;4.248;2023-02-01T04:48:25;4.70;99.90
16301;DHT22;8258;51.020;4.248;2023-02-01T04:50:53;4.70;99.90
16301;DHT22;8258;51.020;4.248;2023-02-01T04:53:20;4.60;99.90
16301;DHT22;8258;51.020;4.248;2023-02-01T04:55:48;4.60;99.90
16301;DHT22;8258;51.020;4.248;2023-02-01T04:58:15;4.60;99.90
16301;DHT22;8258;51.020;4.248;2023-02-01T05:00:44;4.60;99.90
16301;DHT22;8258;51.020;4.248;2023-02-01T05:03:11;4.60;99.90
16301;DHT22;8258;51.020;4.248;2023-02-01T05:05:38;4.60;99.90
16301;DHT22;8258;51.020;4.248;2023-02-01T05:08:05;4.60;99.90
16301;DHT22;8258;51.020;4.248;2023-02-01T05:10:31;4.50;99.90
16301;DHT22;8258;51.020;4.248;2023-02-01T05:12:58;4.50;99.90
16301;DHT22;8258;51.020;4.248;2023-02-01T05:15:44;4.60;99.90
16301;DHT22;8258;51.020;4.248;2023-02-01T05:18:12;4.60;99.90
16301;DHT22;8258;51.020;4.248;2023-02-01T05:20:39;4.60;99.90
16301;DHT22;8258;51.020;4.248;2023-02-01T05:23:05;4.60;99.90
16301;DHT22;8258;51.020;4.248;2023-02-01T05:25:32;4.60;99.90
16301;DHT22;8258;51.020;4.248;2023-02-01T05:27:59;4.60;99.90
16301;DHT22;8258;51.020;4.248;2023-02-01T05:30:26;4.60;99.90
16301;DHT22;8258;51.020;4.248;2023-02-01T05:32:55;4.60;99.90
16301;DHT22;8258;51.020;4.248;2023-02-01T05:35:22;4.60;99.90
16301;DHT22;8258;51.020;4.248;2023-02-01T05:37:49;4.60;99.90
16301;DHT22;8258;51.020;4.248;2023-02-01T05:40:16;4.50;99.90
16301;DHT22;8258;51.020;4.248;2023-02-01T05:42:43;4.60;99.90
16301;DHT22;8258;51.020;4.248;2023-02-01T05:45:10;4.60;99.90
16301;DHT22;8258;51.020;4.248;2023-02-01T05:47:37;4.60;99.90
16301;DHT22;8258;51.020;4.248;2023-02-01T05:50:07;4.60;99.90
16301;DHT22;8258;51.020;4.248;2023-02-01T05:52:34;4.60;99.90
16301;DHT22;8258;51.020;4.248;2023-02-01T05:55:01;4.50;99.90
16301;DHT22;8258;51.020;4.248;2023-02-01T05:57:28;4.50;99.90
16301;DHT22;8258;51.020;4.248;2023-02-01T05:59:56;4.50;99.90
16301;DHT22;8258;51.020;4.248;2023-02-01T06:02:23;4.40;99.90
16301;DHT22;8258;51.020;4.248;2023-02-01T06:04:50;4.40;99.90
16301;DHT22;8258;51.020;4.248;2023-02-01T06:07:19;4.40;99.90
16301;DHT22;8258;51.020;4.248;2023-02-01T06:09:46;4.40;99.90
16301;DHT22;8258;51.020;4.248;2023-02-01T06:12:13;4.40;99.90
16301;DHT22;8258;51.020;4.248;2023-02-01T06:14:39;4.30;99.90
16301;DHT22;8258;51.020;4.248;2023-02-01T06:17:08;4.30;99.90
16301;DHT22;8258;51.020;4.248;2023-02-01T06:19:35;4.30;99.90
16301;DHT22;8258;51.020;4.248;2023-02-01T06:22:02;4.40;99.90
16301;DHT22;8258;51.020;4.248;2023-02-01T06:24:33;4.30;99.90
16301;DHT22;8258;51.020;4.248;2023-02-01T06:26:59;4.40;99.90
16301;DHT22;8258;51.020;4.248;2023-02-01T06:29:26;4.40;99.90
16301;DHT22;8258;51.020;4.248;2023-02-01T06:31:53;4.40;99.90
16301;DHT22;8258;51.020;4.248;2023-02-01T06:34:20;4.40;99.90
16301;DHT22;8258;51.020;4.248;2023-02-01T06:36:48;4.40;99.90
16301;DHT22;8258;51.020;4.248;2023-02-01T06:39:16;4.40;99.90
16301;DHT22;8258;51.020;4.248;2023-02-01T06:41:46;4.40;99.90
16301;DHT22;8258;51.020;4.248;2023-02-01T06:44:13;4.40;99.90
16301;DHT22;8258;51.020;4.248;2023-02-01T06:46:40;4.50;99.90
16301;DHT22;8258;51.020;4.248;2023-02-01T06:49:07;4.50;99.90
16301;DHT22;8258;51.020;4.248;2023-02-01T06:51:34;4.50;99.90
16301;DHT22;8258;51.020;4.248;2023-02-01T06:54:01;4.50;99.90
16301;DHT22;8258;51.020;4.248;2023-02-01T06:56:28;4.50;99.90
16301;DHT22;8258;51.020;4.248;2023-02-01T06:58:58;4.50;99.90
16301;DHT22;8258;51.020;4.248;2023-02-01T07:01:26;4.50;99.90
16301;DHT22;8258;51.020;4.248;2023-02-01T07:03:53;4.50;99.90
16301;DHT22;8258;51.020;4.248;2023-02-01T07:06:20;4.40;99.90
16301;DHT22;8258;51.020;4.248;2023-02-01T07:08:47;4.40;99.90
16301;DHT22;8258;51.020;4.248;2023-02-01T07:11:15;4.30;99.90
16301;DHT22;8258;51.020;4.248;2023-02-01T07:13:42;4.40;99.90
16301;DHT22;8258;51.020;4.248;2023-02-01T07:16:12;4.40;99.90
16301;DHT22;8258;51.020;4.248;2023-02-01T07:18:40;4.40;99.90
16301;DHT22;8258;51.020;4.248;2023-02-01T07:21:07;4.40;99.90
16301;DHT22;8258;51.020;4.248;2023-02-01T07:23:34;4.40;99.90
16301;DHT22;8258;51.020;4.248;2023-02-01T07:26:03;4.40;99.90
16301;DHT22;8258;51.020;4.248;2023-02-01T07:28:32;4.40;99.90
16301;DHT22;8258;51.020;4.248;2023-02-01T07:31:07;4.40;99.90
16301;DHT22;8258;51.020;4.248;2023-02-01T07:33:45;4.40;99.90
16301;DHT22;8258;51.020;4.248;2023-02-01T07:36:14;4.40;99.90
16301;DHT22;8258;51.020;4.248;2023-02-01T07:38:42;4.40;99.90
16301;DHT22;8258;51.020;4.248;2023-02-01T07:41:09;4.40;99.90
16301;DHT22;8258;51.020;4.248;2023-02-01T07:43:36;4.50;99.90
16301;DHT22;8258;51.020;4.248;2023-02-01T07:46:05;4.50;99.90
16301;DHT22;8258;51.020;4.248;2023-02-01T07:48:32;4.50;99.90
16301;DHT22;8258;51.020;4.248;2023-02-01T07:51:03;4.50;99.90
16301;DHT22;8258;51.020;4.248;2023-02-01T07:53:32;4.60;99.90
16301;DHT22;8258;51.020;4.248;2023-02-01T07:56:00;4.70;99.90
16301;DHT22;8258;51.020;4.248;2023-02-01T07:58:28;4.80;99.90
16301;DHT22;8258;51.020;4.248;2023-02-01T08:00:55;4.90;99.90
16301;DHT22;8258;51.020;4.248;2023-02-01T08:03:40;4.90;99.90
16301;DHT22;8258;51.020;4.248;2023-02-01T08:06:08;5.00;99.90
16301;DHT22;8258;51.020;4.248;2023-02-01T08:08:35;5.30;99.90
16301;DHT22;8258;51.020;4.248;2023-02-01T08:11:04;5.80;99.90
16301;DHT22;8258;51.020;4.248;2023-02-01T08:13:32;6.00;99.90
16301;DHT22;8258;51.020;4.248;2023-02-01T08:16:00;5.80;99.90
16301;DHT22;8258;51.020;4.248;2023-02-01T08:18:27;5.60;99.90
16301;DHT22;8258;51.020;4.248;2023-02-01T08:20:54;5.50;99.90
16301;DHT22;8258;51.020;4.248;2023-02-01T08:23:23;5.30;99.90
16301;DHT22;8258;51.020;4.248;2023-02-01T08:25:50;5.30;99.90
16301;DHT22;8258;51.020;4.248;2023-02-01T08:28:17;5.30;99.90
16301;DHT22;8258;51.020;4.248;2023-02-01T08:30:44;5.30;99.90
16301;DHT22;8258;51.020;4.248;2023-02-01T08:33:11;5.30;99.90
16301;DHT22;8258;51.020;4.248;2023-02-01T08:35:39;5.30;99.90
16301;DHT22;8258;51.020;4.248;2023-02-01T08:38:06;5.40;99.90
16301;DHT22;8258;51.020;4.248;2023-02-01T08:40:34;5.40;99.90
16301;DHT22;8258;51.020;4.248;2023-02-01T08:43:01;5.50;99.90
16301;DHT22;8258;51.020;4.248;2023-02-01T08:45:29;5.50;99.90
16301;DHT22;8258;51.020;4.248;2023-02-01T08:47:56;5.60;99.90
16301;DHT22;8258;51.020;4.248;2023-02-01T08:50:24;5.70;99.90
16301;DHT22;8258;51.020;4.248;2023-02-01T08:52:52;5.70;99.90
16301;DHT22;8258;51.020;4.248;2023-02-01T08:55:19;5.80;99.90
16301;DHT22;8258;51.020;4.248;2023-02-01T08:57:48;5.90;99.90
16301;DHT22;8258;51.020;4.248;2023-02-01T09:00:16;5.90;99.90
16301;DHT22;8258;51.020;4.248;2023-02-01T09:02:44;6.00;99.90
16301;DHT22;8258;51.020;4.248;2023-02-01T09:05:11;6.20;99.90
16301;DHT22;8258;51.020;4.248;2023-02-01T09:07:39;6.50;99.90
16301;DHT22;8258;51.020;4.248;2023-02-01T09:10:07;7.20;99.90
16301;DHT22;8258;51.020;4.248;2023-02-01T09:12:35;7.30;99.90
16301;DHT22;8258;51.020;4.248;2023-02-01T09:15:06;7.00;99.90
16301;DHT22;8258;51.020;4.248;2023-02-01T09:17:34;7.00;99.90
16301;DHT22;8258;51.020;4.248;2023-02-01T09:20:01;7.30;99.90
16301;DHT22;8258;51.020;4.248;2023-02-01T09:22:28;7.80;99.90
16301;DHT22;8258;51.020;4.248;2023-02-01T09:24:55;7.90;99.90
16301;DHT22;8258;51.020;4.248;2023-02-01T09:27:22;8.30;99.90
16301;DHT22;8258;51.020;4.248;2023-02-01T09:29:49;8.80;99.90
16301;DHT22;8258;51.020;4.248;2023-02-01T09:32:19;9.00;99.90
16301;DHT22;8258;51.020;4.248;2023-02-01T09:34:46;9.10;99.90
16301;DHT22;8258;51.020;4.248;2023-02-01T09:37:13;9.40;99.90
16301;DHT22;8258;51.020;4.248;2023-02-01T09:39:40;9.80;99.90
16301;DHT22;8258;51.020;4.248;2023-02-01T09:42:18;10.10;99.90
16301;DHT22;8258;51.020;4.248;2023-02-01T09:44:59;10.70;99.90
16301;DHT22;8258;51.020;4.248;2023-02-01T09:47:31;10.80;99.90
16301;DHT22;8258;51.020;4.248;2023-02-01T09:50:03;10.60;99.90
16301;DHT22;8258;51.020;4.248;2023-02-01T09:52:34;10.80;99.90
16301;DHT22;8258;51.020;4.248;2023-02-01T09:55:06;10.90;99.90
16301;DHT22;8258;51.020;4.248;2023-02-01T09:57:45;10.80;99.90
16301;DHT22;8258;51.020;4.248;2023-02-01T10:00:19;11.10;99.90
16301;DHT22;8258;51.020;4.248;2023-02-01T10:02:49;10.80;99.90
16301;DHT22;8258;51.020;4.248;2023-02-01T10:05:22;11.40;99.90
16301;DHT22;8258;51.020;4.248;2023-02-01T10:07:59;11.90;99.90
16301;DHT22;8258;51.020;4.248;2023-02-01T10:10:30;12.30;99.90
16301;DHT22;8258;51.020;4.248;2023-02-01T10:13:09;12.10;99.90
16301;DHT22;8258;51.020;4.248;2023-02-01T10:15:50;11.30;99.90
16301;DHT22;8258;51.020;4.248;2023-02-01T10:21:19;11.80;99.90
16301;DHT22;8258;51.020;4.248;2023-02-01T10:24:14;11.90;99.90
16301;DHT22;8258;51.020;4.248;2023-02-01T10:26:47;11.80;99.90
16301;DHT22;8258;51.020;4.248;2023-02-01T10:29:19;12.40;99.90
16301;DHT22;8258;51.020;4.248;2023-02-01T10:31:47;12.40;99.90
16301;DHT22;8258;51.020;4.248;2023-02-01T10:34:21;12.70;99.90
16301;DHT22;8258;51.020;4.248;2023-02-01T10:36:53;12.70;99.90
16301;DHT22;8258;51.020;4.248;2023-02-01T10:39:21;12.70;99.90
16301;DHT22;8258;51.020;4.248;2023-02-01T10:41:49;12.40;99.90
16301;DHT22;8258;51.020;4.248;2023-02-01T10:44:19;11.80;99.90
16301;DHT22;8258;51.020;4.248;2023-02-01T10:46:48;12.30;99.90
16301;DHT22;8258;51.020;4.248;2023-02-01T10:49:19;13.30;99.90
16301;DHT22;8258;51.020;4.248;2023-02-01T10:51:51;13.20;99.90
16301;DHT22;8258;51.020;4.248;2023-02-01T10:54:21;12.30;99.90
16301;DHT22;8258;51.020;4.248;2023-02-01T10:56:49;11.60;99.90
16301;DHT22;8258;51.020;4.248;2023-02-01T10:59:20;11.60;99.90
16301;DHT22;8258;51.020;4.248;2023-02-01T11:01:49;12.10;99.90
16301;DHT22;8258;51.020;4.248;2023-02-01T11:04:19;12.60;99.90
16301;DHT22;8258;51.020;4.248;2023-02-01T11:06:49;11.70;99.90
16301;DHT22;8258;51.020;4.248;2023-02-01T11:09:19;11.30;99.90
16301;DHT22;8258;51.020;4.248;2023-02-01T11:11:56;10.90;99.90
16301;DHT22;8258;51.020;4.248;2023-02-01T11:14:35;10.70;99.90
16301;DHT22;8258;51.020;4.248;2023-02-01T11:17:21;10.50;99.90
16301;DHT22;8258;51.020;4.248;2023-02-01T11:19:58;10.40;99.90
16301;DHT22;8258;51.020;4.248;2023-02-01T11:22:26;10.50;99.90
16301;DHT22;8258;51.020;4.248;2023-02-01T11:24:55;10.70;99.90
16301;DHT22;8258;51.020;4.248;2023-02-01T11:27:24;10.90;99.90
16301;DHT22;8258;51.020;4.248;2023-02-01T11:29:53;10.70;99.90
16301;DHT22;8258;51.020;4.248;2023-02-01T11:32:23;11.00;99.90
16301;DHT22;8258;51.020;4.248;2023-02-01T11:34:53;11.60;99.90
16301;DHT22;8258;51.020;4.248;2023-02-01T11:37:25;12.30;99.90
16301;DHT22;8258;51.020;4.248;2023-02-01T11:39:55;12.80;99.90
16301;DHT22;8258;51.020;4.248;2023-02-01T11:42:22;12.50;99.90
16301;DHT22;8258;51.020;4.248;2023-02-01T11:44:49;12.90;99.90
16301;DHT22;8258;51.020;4.248;2023-02-01T11:47:22;13.40;99.90
16301;DHT22;8258;51.020;4.248;2023-02-01T11:49:51;14.20;99.90
16301;DHT22;8258;51.020;4.248;2023-02-01T11:52:33;14.50;99.90
16301;DHT22;8258;51.020;4.248;2023-02-01T11:55:15;13.80;99.90
16301;DHT22;8258;51.020;4.248;2023-02-01T11:57:52;12.40;99.90
16301;DHT22;8258;51.020;4.248;2023-02-01T12:00:35;12.10;99.90
16301;DHT22;8258;51.020;4.248;2023-02-01T12:06:18;11.70;99.90
16301;DHT22;8258;51.020;4.248;2023-02-01T12:09:06;11.50;99.90
16301;DHT22;8258;51.020;4.248;2023-02-01T12:11:48;11.70;99.90
16301;DHT22;8258;51.020;4.248;2023-02-01T12:14:29;11.80;99.90
16301;DHT22;8258;51.020;4.248;2023-02-01T12:17:12;12.00;99.90
16301;DHT22;8258;51.020;4.248;2023-02-01T12:20:01;12.00;99.90
16301;DHT22;8258;51.020;4.248;2023-02-01T12:22:39;12.20;99.90
16301;DHT22;8258;51.020;4.248;2023-02-01T12:25:39;12.20;99.90
16301;DHT22;8258;51.020;4.248;2023-02-01T12:28:36;12.20;99.90
16301;DHT22;8258;51.020;4.248;2023-02-01T12:31:23;11.90;99.90
16301;DHT22;8258;51.020;4.248;2023-02-01T12:34:11;11.70;99.90
16301;DHT22;8258;51.020;4.248;2023-02-01T12:36:49;11.60;99.90
16301;DHT22;8258;51.020;4.248;2023-02-01T12:39:23;11.50;99.90
16301;DHT22;8258;51.020;4.248;2023-02-01T12:41:57;11.50;99.90
16301;DHT22;8258;51.020;4.248;2023-02-01T12:44:35;11.80;99.90
16301;DHT22;8258;51.020;4.248;2023-02-01T12:47:09;12.10;99.90
16301;DHT22;8258;51.020;4.248;2023-02-01T12:49:46;12.20;99.90
16301;DHT22;8258;51.020;4.248;2023-02-01T12:52:19;12.70;99.90
16301;DHT22;8258;51.020;4.248;2023-02-01T12:54:50;13.60;99.90
16301;DHT22;8258;51.020;4.248;2023-02-01T12:57:26;14.40;99.90
16301;DHT22;8258;51.020;4.248;2023-02-01T12:59:59;15.40;99.90
16301;DHT22;8258;51.020;4.248;2023-02-01T13:02:33;15.20;99.90
16301;DHT22;8258;51.020;4.248;2023-02-01T13:05:17;15.20;99.90
16301;DHT22;8258;51.020;4.248;2023-02-01T13:07:49;14.50;99.90
16301;DHT22;8258;51.020;4.248;2023-02-01T13:10:21;14.00;99.90
16301;DHT22;8258;51.020;4.248;2023-02-01T13:12:54;13.40;99.90
16301;DHT22;8258;51.020;4.248;2023-02-01T13:15:26;13.50;99.90
16301;DHT22;8258;51.020;4.248;2023-02-01T13:17:57;13.50;99.90
16301;DHT22;8258;51.020;4.248;2023-02-01T13:20:30;14.10;99.90
16301;DHT22;8258;51.020;4.248;2023-02-01T13:23:01;14.00;99.90
16301;DHT22;8258;51.020;4.248;2023-02-01T13:25:39;14.50;99.90
16301;DHT22;8258;51.020;4.248;2023-02-01T13:28:14;13.80;99.90
16301;DHT22;8258;51.020;4.248;2023-02-01T13:30:59;13.00;99.90
16301;DHT22;8258;51.020;4.248;2023-02-01T13:33:47;12.70;99.90
16301;DHT22;8258;51.020;4.248;2023-02-01T13:36:37;12.40;99.90
16301;DHT22;8258;51.020;4.248;2023-02-01T13:39:43;12.10;99.90
16301;DHT22;8258;51.020;4.248;2023-02-01T13:42:16;11.90;99.90
16301;DHT22;8258;51.020;4.248;2023-02-01T13:44:47;11.70;99.90
16301;DHT22;8258;51.020;4.248;2023-02-01T13:47:23;11.70;99.90
16301;DHT22;8258;51.020;4.248;2023-02-01T13:49:51;11.40;99.90
16301;DHT22;8258;51.020;4.248;2023-02-01T13:52:31;11.50;99.90
16301;DHT22;8258;51.020;4.248;2023-02-01T13:55:33;11.60;99.90
16301;DHT22;8258;51.020;4.248;2023-02-01T13:58:18;11.70;99.90
16301;DHT22;8258;51.020;4.248;2023-02-01T14:00:48;11.60;99.90
16301;DHT22;8258;51.020;4.248;2023-02-01T14:03:21;11.60;99.90
16301;DHT22;8258;51.020;4.248;2023-02-01T14:09:11;11.30;99.90
16301;DHT22;8258;51.020;4.248;2023-02-01T14:11:42;10.90;99.90
16301;DHT22;8258;51.020;4.248;2023-02-01T14:14:42;10.90;99.90
16301;DHT22;8258;51.020;4.248;2023-02-01T14:17:36;10.80;99.90
16301;DHT22;8258;51.020;4.248;2023-02-01T14:23:22;10.60;99.90
16301;DHT22;8258;51.020;4.248;2023-02-01T14:28:55;10.40;99.90
16301;DHT22;8258;51.020;4.248;2023-02-01T14:31:42;10.40;99.90
16301;DHT22;8258;51.020;4.248;2023-02-01T14:34:27;10.40;99.90
16301;DHT22;8258;51.020;4.248;2023-02-01T14:36:58;10.40;99.90
16301;DHT22;8258;51.020;4.248;2023-02-01T14:39:29;10.20;99.90
16301;DHT22;8258;51.020;4.248;2023-02-01T14:42:00;10.10;99.90
16301;DHT22;8258;51.020;4.248;2023-02-01T14:44:36;10.20;99.90
16301;DHT22;8258;51.020;4.248;2023-02-01T14:52:44;10.20;99.90
16301;DHT22;8258;51.020;4.248;2023-02-01T14:55:15;10.10;99.90
16301;DHT22;8258;51.020;4.248;2023-02-01T14:57:48;10.10;99.90
16301;DHT22;8258;51.020;4.248;2023-02-01T15:00:22;10.00;99.90
16301;DHT22;8258;51.020;4.248;2023-02-01T15:02:50;10.10;99.90
16301;DHT22;8258;51.020;4.248;2023-02-01T15:05:31;10.10;99.90
16301;DHT22;8258;51.020;4.248;2023-02-01T15:08:04;10.00;99.90
16301;DHT22;8258;51.020;4.248;2023-02-01T15:10:39;10.00;99.90
16301;DHT22;8258;51.020;4.248;2023-02-01T15:13:18;9.90;99.90
16301;DHT22;8258;51.020;4.248;2023-02-01T15:16:00;9.90;99.90
16301;DHT22;8258;51.020;4.248;2023-02-01T15:18:27;9.80;99.90
16301;DHT22;8258;51.020;4.248;2023-02-01T15:20:58;9.90;99.90
16301;DHT22;8258;51.020;4.248;2023-02-01T15:23:25;9.90;99.90
16301;DHT22;8258;51.020;4.248;2023-02-01T15:25:53;9.80;99.90
16301;DHT22;8258;51.020;4.248;2023-02-01T15:28:20;9.60;99.90
16301;DHT22;8258;51.020;4.248;2023-02-01T15:30:56;9.60;99.90
16301;DHT22;8258;51.020;4.248;2023-02-01T15:33:24;9.60;99.90
16301;DHT22;8258;51.020;4.248;2023-02-01T15:35:52;9.70;99.90
16301;DHT22;8258;51.020;4.248;2023-02-01T15:38:37;9.60;99.90
16301;DHT22;8258;51.020;4.248;2023-02-01T15:41:11;9.60;99.90
16301;DHT22;8258;51.020;4.248;2023-02-01T15:43:41;9.60;99.90
16301;DHT22;8258;51.020;4.248;2023-02-01T15:46:11;9.50;99.90
16301;DHT22;8258;51.020;4.248;2023-02-01T15:48:46;9.50;99.90
16301;DHT22;8258;51.020;4.248;2023-02-01T15:51:16;9.40;99.90
16301;DHT22;8258;51.020;4.248;2023-02-01T15:53:51;9.50;99.90
16301;DHT22;8258;51.020;4.248;2023-02-01T15:56:24;9.40;99.90
16301;DHT22;8258;51.020;4.248;2023-02-01T15:58:54;9.40;99.90
16301;DHT22;8258;51.020;4.248;2023-02-01T16:01:22;9.40;99.90
16301;DHT22;8258;51.020;4.248;2023-02-01T16:03:54;9.40;99.90
16301;DHT22;8258;51.020;4.248;2023-02-01T16:06:29;9.40;99.90
16301;DHT22;8258;51.020;4.248;2023-02-01T16:09:03;9.40;99.90
16301;DHT22;8258;51.020;4.248;2023-02-01T16:11:41;9.40;99.90
16301;DHT22;8258;51.020;4.248;2023-02-01T16:14:13;9.40;99.90
16301;DHT22;8258;51.020;4.248;2023-02-01T16:16:40;9.40;99.90
16301;DHT22;8258;51.020;4.248;2023-02-01T16:19:07;9.30;99.90
16301;DHT22;8258;51.020;4.248;2023-02-01T16:21:34;9.30;99.90
16301;DHT22;8258;51.020;4.248;2023-02-01T16:24:03;9.30;99.90
16301;DHT22;8258;51.020;4.248;2023-02-01T16:26:31;9.20;99.90
16301;DHT22;8258;51.020;4.248;2023-02-01T16:28:58;9.20;99.90
16301;DHT22;8258;51.020;4.248;2023-02-01T16:31:29;9.20;99.90
16301;DHT22;8258;51.020;4.248;2023-02-01T16:33:59;9.20;99.90
16301;DHT22;8258;51.020;4.248;2023-02-01T16:36:26;9.20;99.90
16301;DHT22;8258;51.020;4.248;2023-02-01T16:38:54;9.20;99.90
16301;DHT22;8258;51.020;4.248;2023-02-01T16:41:23;9.10;99.90
16301;DHT22;8258;51.020;4.248;2023-02-01T16:43:52;9.10;99.90
16301;DHT22;8258;51.020;4.248;2023-02-01T16:46:20;9.00;99.90